Terminal Aerodrome Forecast
Issued by NWS

Home | Current Version | Previous Version | Text Only | Print | Product List | Glossary On
Versions: 1 2 3 4 5 6 7 8 9 10 11 12 13 14 15 16 17 18 19 20 21 22 23 24
000
FTUS42 KTAE 010500
TAFDHN
TAF
KDHN 010520Z 0106/0206 20005KT P6SM SCT050
      TEMPO 0111/0113 00000KT 4SM BR SCT002=

USA.gov is the U.S. government's official web portal to all federal, state and local government web resources and services.